Terminal Aerodrome Forecast
Issued by NWS

Home | Current Version | Previous Version | Text Only | Print | Product List | Glossary Off
Versions: 1 2 3 4 5 6 7 8 9 10 11 12 13 14 15 16 17 18 19 20 21 22 23 24 25 26 27 28 29 30 31 32 33 34 35 36 37 38 39
000 FTUS41 KBOX 060222 AAA TAFBAF TAF AMD KBAF 060222Z 0602/0624 00000KT P6SM SKC FM060700 00000KT 2SM BR FEW250 FM061000 VRB03KT P6SM FEW250 FM061900 19006KT P6SM SCT070=

USA.gov is the U.S. government's official web portal to all federal, state and local government web resources and services.